KZZV/ZZV METAR and TAF weather

Enter ICAO airport designator
Station Type Date Time Source
KZZV METAR 2019/12/09 13:56 UTC NOAA

KZZV 091356Z AUTO 17009KT 8SM -RA SCT008 OVC015 08/06 A2982 RMK AO2 P0000 T00780061


Station Type Date Time Source
KZZV Decoded METAR 2019/12/09 13:56 UTC NOAA

ZANESVILLE MUNICIPAL AIRPORT , OH, United States (KZZV) 39-57N 81-54W 268M
Dec 09, 2019 - 08:56 AM EST / 2019.12.09 1356 UTC
Wind: from the S (170 degrees) at 10 MPH (9 KT):0
Visibility: 8 mile(s):0
Sky conditions: overcast
Weather: light rain
Precipitation last hour: A trace
Temperature: 46.0 F (7.8 C)
Dew Point: 43.0 F (6.1 C)
Relative Humidity: 88%
Pressure (altimeter): 29.82 in. Hg (1009 hPa)
ob: KZZV 091356Z AUTO 17009KT 8SM -RA SCT008 OVC015 08/06 A2982 RMK AO2 P0000 T00780061
cycle: 14

Station Type Date Time Source
KZZV TAF 2019/12/09 12:39 UTC NOAA

TAF KZZV 091136Z 0912/1012 17008KT 6SM -RA BR OVC035
FM091400 18012G20KT 6SM -RA BR OVC010 WS020/20045KT
TEMPO 0915/0919 5SM -RA BR BKN007
FM092100 21013KT 5SM -SHRA OVC015 WS020/20050KT
FM100500 24016G23KT P6SM -SHRA OVC015
FM101000 27010G18KT P6SM BKN015

Example: see airport list